createdAt,value
2022-09-30T00:01:08.477Z,94746.91
2022-09-30T00:03:37.032Z,94741.03
2022-09-30T00:06:08.850Z,94757.25
2022-09-30T00:08:38.790Z,94754.84
2022-09-30T00:11:07.240Z,94749.63
2022-09-30T00:13:36.409Z,94754.84
2022-09-30T00:16:03.906Z,94749.63
2022-09-30T00:18:31.262Z,94750.41
2022-09-30T00:20:58.032Z,94745.94
2022-09-30T00:23:25.209Z,94757.97
2022-09-30T00:25:57.637Z,94750.72
2022-09-30T00:28:24.487Z,94752.88
2022-09-30T00:30:51.278Z,94757.91
2022-09-30T00:33:18.041Z,94763.84
2022-09-30T00:35:44.798Z,94765.00
2022-09-30T00:38:11.590Z,94757.75
2022-09-30T00:40:39.394Z,94750.56
2022-09-30T00:43:15.232Z,94757.56
2022-09-30T00:45:59.117Z,94758.56
2022-09-30T00:48:35.700Z,94751.31
2022-09-30T00:51:03.155Z,94746.13
2022-09-30T00:53:36.805Z,94746.47
2022-09-30T00:56:10.531Z,94753.25
2022-09-30T00:58:49.447Z,94761.69
2022-09-30T01:01:17.539Z,94748.41
2022-09-30T01:04:03.393Z,94750.03
2022-09-30T01:06:30.341Z,94730.59
2022-09-30T01:08:58.682Z,94745.81
2022-09-30T01:11:27.642Z,94744.75
2022-09-30T01:13:59.757Z,94744.56
2022-09-30T01:16:42.180Z,94740.97
2022-09-30T01:19:45.372Z,94752.38
2022-09-30T01:22:42.242Z,94755.97
2022-09-30T01:25:15.817Z,94768.53
2022-09-30T01:28:06.732Z,94767.09
2022-09-30T01:30:51.877Z,94757.72
2022-09-30T01:33:45.371Z,94758.31
2022-09-30T01:36:46.196Z,94754.97
2022-09-30T01:39:20.359Z,94766.44
2022-09-30T01:41:56.231Z,94759.06
2022-09-30T01:44:28.924Z,94756.28
2022-09-30T01:47:06.452Z,94757.84
2022-09-30T01:49:41.702Z,94758.00
2022-09-30T01:52:11.123Z,94764.81
2022-09-30T01:54:53.198Z,94759.63
2022-09-30T01:57:53.220Z,94747.72
2022-09-30T02:00:21.355Z,94756.59
2022-09-30T02:03:06.054Z,94754.59
2022-09-30T02:05:41.961Z,94758.00
2022-09-30T02:08:35.734Z,94755.41
2022-09-30T02:11:12.316Z,94755.16
2022-09-30T02:14:04.776Z,94771.19
2022-09-30T02:16:35.614Z,94762.78
2022-09-30T02:19:19.196Z,94774.97
2022-09-30T02:21:53.730Z,94773.72
2022-09-30T02:24:25.454Z,94770.94
2022-09-30T02:26:56.430Z,94772.91
2022-09-30T02:29:35.671Z,94780.72
2022-09-30T02:32:06.349Z,94773.09
2022-09-30T02:34:39.621Z,94777.50
2022-09-30T02:37:15.899Z,94769.81
2022-09-30T02:39:59.029Z,94778.78
2022-09-30T02:42:28.721Z,94764.72
2022-09-30T02:45:01.942Z,94766.09
2022-09-30T02:47:43.646Z,94762.69
2022-09-30T02:50:23.826Z,94765.66
2022-09-30T02:53:12.515Z,94771.66
2022-09-30T02:55:53.587Z,94775.69
2022-09-30T02:58:22.651Z,94774.88
2022-09-30T03:00:50.667Z,94775.63
2022-09-30T03:03:22.071Z,94770.41
2022-09-30T03:05:50.787Z,94789.41
2022-09-30T03:08:18.041Z,94793.53
2022-09-30T03:10:47.212Z,94796.50
2022-09-30T03:13:26.141Z,94799.91
2022-09-30T03:16:18.649Z,94794.28
2022-09-30T03:18:51.549Z,94793.38
2022-09-30T03:21:24.339Z,94786.75
2022-09-30T03:24:25.879Z,94777.66
2022-09-30T03:27:13.156Z,94796.06
2022-09-30T03:29:50.038Z,94793.66
2022-09-30T03:32:44.769Z,94798.03
2022-09-30T03:35:37.571Z,94789.25
2022-09-30T03:38:12.693Z,94791.06
2022-09-30T03:41:08.585Z,94790.88
2022-09-30T03:43:37.295Z,94785.63
2022-09-30T03:46:18.827Z,94797.16
2022-09-30T03:48:49.814Z,94812.75
2022-09-30T03:51:17.625Z,94820.19
2022-09-30T03:53:46.756Z,94825.63
2022-09-30T03:56:14.008Z,94820.00
2022-09-30T03:58:44.538Z,94815.63
2022-09-30T04:01:21.567Z,94821.81
2022-09-30T04:03:52.944Z,94821.97
2022-09-30T04:06:25.095Z,94826.00
2022-09-30T04:08:54.110Z,94814.25
2022-09-30T04:11:21.062Z,94808.25
2022-09-30T04:13:47.831Z,94817.75
2022-09-30T04:16:14.772Z,94822.94
2022-09-30T04:18:42.481Z,94818.47
2022-09-30T04:21:12.064Z,94811.41
2022-09-30T04:23:40.782Z,94806.13
2022-09-30T04:26:11.126Z,94802.91
2022-09-30T04:28:37.987Z,94811.84
2022-09-30T04:31:06.444Z,94823.84
2022-09-30T04:33:33.682Z,94826.91
2022-09-30T04:36:01.146Z,94830.66
2022-09-30T04:38:28.228Z,94833.53
2022-09-30T04:40:55.925Z,94828.16
2022-09-30T04:43:23.694Z,94825.38
2022-09-30T04:45:52.757Z,94839.34
2022-09-30T04:48:19.793Z,94843.56
2022-09-30T04:50:46.578Z,94846.88
2022-09-30T04:53:14.939Z,94846.94
2022-09-30T04:55:42.836Z,94869.97
2022-09-30T04:58:09.913Z,94870.31
2022-09-30T05:00:37.002Z,94872.84
2022-09-30T05:03:04.616Z,94866.47
2022-09-30T05:05:33.301Z,94860.94
2022-09-30T05:08:04.582Z,94852.88
2022-09-30T05:10:31.962Z,94860.94
2022-09-30T05:12:59.582Z,94863.72
2022-09-30T05:15:26.990Z,94884.91
2022-09-30T05:17:54.362Z,94883.94
2022-09-30T05:20:22.100Z,94889.13
2022-09-30T05:22:55.420Z,94888.59
2022-09-30T05:25:23.788Z,94889.41
2022-09-30T05:27:51.406Z,94883.22
2022-09-30T05:30:18.463Z,94880.28
2022-09-30T05:32:46.286Z,94884.31
2022-09-30T05:35:13.344Z,94885.59
2022-09-30T05:37:40.426Z,94898.75
2022-09-30T05:40:08.436Z,94907.16
2022-09-30T05:42:37.064Z,94916.56
2022-09-30T05:45:07.410Z,94902.59
2022-09-30T05:47:34.525Z,94913.88
2022-09-30T05:50:01.418Z,94904.59
2022-09-30T05:52:28.467Z,94908.16
2022-09-30T05:54:56.510Z,94916.66
2022-09-30T05:57:23.483Z,94907.53
2022-09-30T05:59:51.088Z,94913.00
2022-09-30T06:02:18.069Z,94914.44
2022-09-30T06:04:45.031Z,94918.91
2022-09-30T06:07:11.920Z,94911.38
2022-09-30T06:09:38.852Z,94910.84
2022-09-30T06:12:07.098Z,94915.94
2022-09-30T06:14:34.504Z,94910.38
2022-09-30T06:17:01.344Z,94917.44
2022-09-30T06:19:30.481Z,94922.97
2022-09-30T06:21:58.827Z,94930.59
2022-09-30T06:24:25.752Z,94925.84
2022-09-30T06:26:52.680Z,94929.88
2022-09-30T06:29:19.841Z,94935.00
2022-09-30T06:31:46.775Z,94936.06
2022-09-30T06:34:13.922Z,94939.94
2022-09-30T06:36:40.721Z,94948.81
2022-09-30T06:39:11.581Z,94942.81
2022-09-30T06:41:44.246Z,94947.28
2022-09-30T06:44:18.903Z,94959.41
2022-09-30T06:46:53.487Z,94950.78
2022-09-30T06:49:21.391Z,94968.63
2022-09-30T06:51:48.237Z,94965.47
2022-09-30T06:54:15.094Z,94975.97
2022-09-30T06:56:42.065Z,94990.41
2022-09-30T06:59:09.794Z,94984.75
2022-09-30T07:01:36.585Z,94989.59
2022-09-30T07:04:09.673Z,94989.06
2022-09-30T07:06:39.153Z,94991.53
2022-09-30T07:09:07.329Z,94994.22
2022-09-30T07:11:34.597Z,94999.41
2022-09-30T07:14:01.441Z,95000.28
2022-09-30T07:16:28.364Z,94995.50
2022-09-30T07:18:55.210Z,94995.59
2022-09-30T07:21:22.016Z,95002.28
2022-09-30T07:23:48.823Z,95002.16
2022-09-30T07:26:20.392Z,95003.41
2022-09-30T07:28:48.000Z,95007.91
2022-09-30T07:31:32.387Z,95007.63
2022-09-30T07:34:00.912Z,95011.97
2022-09-30T07:36:33.102Z,95011.44
2022-09-30T07:39:06.195Z,95015.53
2022-09-30T07:41:36.159Z,95007.91
2022-09-30T07:44:03.077Z,95013.50
2022-09-30T07:46:33.307Z,95019.59
2022-09-30T07:49:05.773Z,95016.59
2022-09-30T07:51:35.515Z,95009.84
2022-09-30T07:54:12.574Z,95020.13
2022-09-30T07:59:28.767Z,95015.25
2022-09-30T08:01:55.967Z,95018.94
2022-09-30T08:04:24.722Z,95018.13
2022-09-30T08:06:55.380Z,95034.66
2022-09-30T08:09:24.798Z,95036.50
2022-09-30T08:11:52.022Z,95033.09
2022-09-30T08:14:26.829Z,95033.91
2022-09-30T08:16:55.911Z,95041.75
2022-09-30T08:19:23.652Z,95044.41
2022-09-30T08:21:53.240Z,95039.53
2022-09-30T08:24:21.206Z,95048.75
2022-09-30T08:26:48.474Z,95045.06
2022-09-30T08:29:20.807Z,95048.25
2022-09-30T08:31:57.055Z,95053.41
2022-09-30T08:34:24.225Z,95052.09
2022-09-30T08:36:51.068Z,95054.56
2022-09-30T08:39:17.972Z,95057.22
2022-09-30T08:42:32.292Z,95055.63
2022-09-30T08:45:06.784Z,95049.63
2022-09-30T08:47:33.667Z,95049.00
2022-09-30T08:50:18.922Z,95061.19
2022-09-30T08:52:50.264Z,95037.56
2022-09-30T08:55:26.483Z,95055.69
2022-09-30T08:57:56.578Z,95059.16
2022-09-30T09:00:24.401Z,95062.78
2022-09-30T09:03:03.273Z,95067.19
2022-09-30T09:05:49.944Z,95064.19
2022-09-30T09:08:56.954Z,95062.13
2022-09-30T09:11:24.507Z,95073.09
2022-09-30T09:14:07.601Z,95053.19
2022-09-30T09:16:42.712Z,95064.19
2022-09-30T09:19:11.939Z,95061.91
2022-09-30T09:21:44.585Z,95066.50
2022-09-30T09:24:18.709Z,95077.63
2022-09-30T09:26:47.043Z,95074.19
2022-09-30T09:29:34.524Z,95077.53
2022-09-30T09:32:03.569Z,95064.25
2022-09-30T09:34:31.206Z,95071.78
2022-09-30T09:37:13.190Z,95065.06
2022-09-30T09:39:54.955Z,95059.50
2022-09-30T09:42:21.673Z,95061.47
2022-09-30T09:45:07.280Z,95068.47
2022-09-30T09:47:34.488Z,95061.44
2022-09-30T09:50:05.534Z,95061.22
2022-09-30T09:52:47.132Z,95058.59
2022-09-30T09:55:18.140Z,95049.66
2022-09-30T09:57:45.192Z,95054.91
2022-09-30T10:01:01.054Z,95045.09
2022-09-30T10:03:28.681Z,95061.53
2022-09-30T10:06:06.255Z,95059.44
2022-09-30T10:08:39.385Z,95063.50
2022-09-30T10:11:18.115Z,95050.88
2022-09-30T10:13:46.187Z,95051.41
2022-09-30T10:16:28.357Z,95049.16
2022-09-30T10:18:55.633Z,95041.25
2022-09-30T10:21:25.258Z,95042.66
2022-09-30T10:23:52.128Z,95044.13
2022-09-30T10:26:22.395Z,95042.72
2022-09-30T10:28:56.690Z,95040.19
2022-09-30T10:31:28.726Z,95030.78
2022-09-30T10:34:16.754Z,95037.19
2022-09-30T10:36:44.876Z,95038.56
2022-09-30T10:39:34.800Z,95040.75
2022-09-30T10:42:26.683Z,95039.00
2022-09-30T10:45:20.754Z,95034.78
2022-09-30T10:47:50.963Z,95033.19
2022-09-30T10:50:22.462Z,95029.53
2022-09-30T10:53:26.505Z,95023.53
2022-09-30T10:55:56.292Z,95037.13
2022-09-30T10:58:48.906Z,95037.03
2022-09-30T11:01:26.425Z,95027.56
2022-09-30T11:04:39.820Z,95046.50
2022-09-30T11:07:30.853Z,95043.03
2022-09-30T11:10:31.780Z,95035.91
2022-09-30T11:13:29.783Z,95037.06
2022-09-30T11:16:08.599Z,95031.25
2022-09-30T11:18:43.689Z,95032.09
2022-09-30T11:21:18.581Z,95047.81
2022-09-30T11:23:52.348Z,95043.22
2022-09-30T11:26:34.737Z,95056.19
2022-09-30T11:29:39.432Z,95053.91
2022-09-30T11:32:27.889Z,95048.03
2022-09-30T11:35:26.424Z,95042.06
2022-09-30T11:37:56.325Z,95051.38
2022-09-30T11:40:37.635Z,95051.69
2022-09-30T11:43:14.357Z,95052.56
2022-09-30T11:45:47.237Z,95036.41
2022-09-30T11:48:51.318Z,95042.22
2022-09-30T11:51:40.348Z,95037.97
2022-09-30T11:54:20.572Z,95050.94
2022-09-30T11:57:10.706Z,95034.28
2022-09-30T11:59:50.605Z,95042.25
2022-09-30T12:02:38.239Z,95055.88
2022-09-30T12:05:14.607Z,95039.72
2022-09-30T12:07:48.746Z,95051.59
2022-09-30T12:10:20.638Z,95056.28
2022-09-30T12:12:53.708Z,95066.72
2022-09-30T12:15:24.078Z,95057.56
2022-09-30T12:17:55.917Z,95063.06
2022-09-30T12:20:28.892Z,95058.38
2022-09-30T12:23:01.981Z,95060.28
2022-09-30T12:25:37.866Z,95053.19
2022-09-30T12:28:32.191Z,95055.56
2022-09-30T12:31:19.650Z,95069.88
2022-09-30T12:34:18.362Z,95067.31
2022-09-30T12:37:07.685Z,95063.88
2022-09-30T12:39:53.134Z,95085.88
2022-09-30T12:42:22.979Z,95080.91
2022-09-30T12:45:08.598Z,95064.47
2022-09-30T12:47:54.948Z,95063.94
2022-09-30T12:50:26.970Z,95069.84
2022-09-30T12:52:57.200Z,95067.19
2022-09-30T12:55:41.206Z,95060.03
2022-09-30T12:58:20.843Z,95055.00
2022-09-30T13:01:06.449Z,95066.25
2022-09-30T13:03:47.330Z,95067.22
2022-09-30T13:06:15.924Z,95069.88
2022-09-30T13:09:09.715Z,95077.56
2022-09-30T13:11:42.701Z,95062.66
2022-09-30T13:14:30.723Z,95079.69
2022-09-30T13:17:09.427Z,95066.25
2022-09-30T13:19:42.925Z,95066.28
2022-09-30T13:22:21.572Z,95066.09
2022-09-30T13:25:03.433Z,95071.44
2022-09-30T13:27:42.293Z,95076.22
2022-09-30T13:30:15.765Z,95075.47
2022-09-30T13:32:46.148Z,95077.06
2022-09-30T13:35:35.095Z,95071.75
2022-09-30T13:38:13.897Z,95069.44
2022-09-30T13:41:02.354Z,95067.75
2022-09-30T13:44:03.375Z,95072.84
2022-09-30T13:46:31.426Z,95074.63
2022-09-30T13:49:10.931Z,95081.91
2022-09-30T13:51:40.383Z,95089.25
2022-09-30T13:54:34.200Z,95074.38
2022-09-30T13:57:04.055Z,95072.81
2022-09-30T14:00:02.762Z,95078.13
2022-09-30T14:02:39.058Z,95087.22
2022-09-30T14:05:24.983Z,95078.75
2022-09-30T14:08:34.922Z,95081.69
2022-09-30T14:11:26.211Z,95087.22
2022-09-30T14:14:17.609Z,95089.69
2022-09-30T14:17:05.418Z,95087.88
2022-09-30T14:19:59.459Z,95089.44
2022-09-30T14:22:30.259Z,95087.81
2022-09-30T14:24:58.146Z,95087.78
2022-09-30T14:27:52.497Z,95096.50
2022-09-30T14:30:24.673Z,95100.34
2022-09-30T14:32:59.653Z,95110.63
2022-09-30T14:35:33.994Z,95091.97
2022-09-30T14:38:04.629Z,95105.38
2022-09-30T14:40:34.448Z,95093.78
2022-09-30T14:43:05.096Z,95099.81
2022-09-30T14:45:35.692Z,95103.38
2022-09-30T14:48:11.884Z,95107.31
2022-09-30T14:50:50.736Z,95103.84
2022-09-30T14:53:57.508Z,95082.94
2022-09-30T14:56:31.094Z,95117.78
2022-09-30T14:58:59.927Z,95107.78
2022-09-30T15:01:36.093Z,95113.75
2022-09-30T15:04:11.697Z,95102.13
2022-09-30T15:06:42.624Z,95111.78
2022-09-30T15:09:29.568Z,95120.31
2022-09-30T15:11:58.482Z,95121.31
2022-09-30T15:14:25.582Z,95118.03
2022-09-30T15:16:59.492Z,95120.09
2022-09-30T15:19:37.245Z,95129.31
2022-09-30T15:22:06.786Z,95116.66
2022-09-30T15:24:36.575Z,95127.69
2022-09-30T15:27:04.643Z,95130.75
2022-09-30T15:29:31.775Z,95146.03
2022-09-30T15:32:04.638Z,95151.72
2022-09-30T15:34:31.894Z,95149.97
2022-09-30T15:37:06.727Z,95151.63
2022-09-30T15:40:06.906Z,95156.44
2022-09-30T15:42:38.080Z,95157.78
2022-09-30T15:45:24.731Z,95149.81
2022-09-30T15:48:00.214Z,95167.94
2022-09-30T15:50:45.830Z,95175.59
2022-09-30T15:53:29.802Z,95176.44
2022-09-30T15:55:58.763Z,95176.88
2022-09-30T15:58:38.209Z,95183.56
2022-09-30T16:01:26.987Z,95176.50
2022-09-30T16:03:59.282Z,95173.53
2022-09-30T16:06:40.701Z,95185.97
2022-09-30T16:09:37.638Z,95189.34
2022-09-30T16:12:05.455Z,95203.75
2022-09-30T16:14:49.503Z,95212.97
2022-09-30T16:17:30.093Z,95216.09
2022-09-30T16:19:59.770Z,95213.16
2022-09-30T16:22:42.108Z,95229.31
2022-09-30T16:25:22.510Z,95229.19
2022-09-30T16:27:56.560Z,95217.97
2022-09-30T16:30:23.846Z,95217.38
2022-09-30T16:32:55.700Z,95237.34
2022-09-30T16:35:25.133Z,95227.69
2022-09-30T16:37:59.444Z,95233.38
2022-09-30T16:40:28.951Z,95236.78
2022-09-30T16:42:58.881Z,95229.59
2022-09-30T16:45:28.213Z,95242.38
2022-09-30T16:47:57.509Z,95227.59
2022-09-30T16:50:31.598Z,95232.66
2022-09-30T16:52:58.580Z,95252.09
2022-09-30T16:55:26.587Z,95200.09
2022-09-30T16:57:57.323Z,95251.78
2022-09-30T17:00:26.132Z,95243.16
2022-09-30T17:02:53.312Z,95244.25
2022-09-30T17:05:22.651Z,95256.59
2022-09-30T17:07:58.128Z,95253.84
2022-09-30T17:10:25.105Z,95260.31
2022-09-30T17:12:52.341Z,95259.13
2022-09-30T17:15:20.122Z,95258.34
2022-09-30T17:17:47.048Z,95255.19
2022-09-30T17:20:14.385Z,95264.91
2022-09-30T17:22:41.698Z,95260.91
2022-09-30T17:25:09.942Z,95257.34
2022-09-30T17:27:37.214Z,95260.16
2022-09-30T17:30:05.877Z,95250.41
2022-09-30T17:32:32.987Z,95247.13
2022-09-30T17:34:59.732Z,95258.84
2022-09-30T17:37:27.496Z,95256.81
2022-09-30T17:39:54.374Z,95263.59
2022-09-30T17:42:39.490Z,95272.72
2022-09-30T17:45:06.678Z,95280.75
2022-09-30T17:47:33.536Z,95276.91
2022-09-30T17:50:00.417Z,95285.59
2022-09-30T17:52:27.198Z,95289.25
2022-09-30T17:54:54.173Z,95288.22
2022-09-30T17:57:21.693Z,95286.22
2022-09-30T17:59:48.604Z,95291.88
2022-09-30T18:02:17.609Z,95298.16
2022-09-30T18:04:44.780Z,95303.22
2022-09-30T18:07:12.836Z,95315.34
2022-09-30T18:09:40.078Z,95312.41
2022-09-30T18:12:07.579Z,95308.81
2022-09-30T18:14:38.508Z,95315.53
2022-09-30T18:17:06.662Z,95322.44
2022-09-30T18:19:35.602Z,95327.34
2022-09-30T18:22:02.900Z,95326.56
2022-09-30T18:24:47.936Z,95318.94
2022-09-30T18:27:15.274Z,95312.72
2022-09-30T18:29:42.212Z,95315.34
2022-09-30T18:32:09.212Z,95317.75
2022-09-30T18:34:36.204Z,95320.19
2022-09-30T18:37:06.806Z,95317.75
2022-09-30T18:39:38.259Z,95314.53
2022-09-30T18:42:05.725Z,95324.63
2022-09-30T18:44:32.767Z,95323.03
2022-09-30T18:47:00.054Z,95317.84
2022-09-30T18:49:26.944Z,95315.81
2022-09-30T18:51:53.763Z,95319.88
2022-09-30T18:54:21.000Z,95329.16
2022-09-30T18:56:47.836Z,95332.41
2022-09-30T18:59:18.337Z,95334.06
2022-09-30T19:01:48.234Z,95330.47
2022-09-30T19:04:15.248Z,95343.78
2022-09-30T19:06:47.706Z,95331.69
2022-09-30T19:09:16.527Z,95342.16
2022-09-30T19:11:44.952Z,95344.56
2022-09-30T19:14:15.705Z,95337.28
2022-09-30T19:16:43.490Z,95342.31
2022-09-30T19:19:10.982Z,95351.59
2022-09-30T19:21:39.456Z,95335.66
2022-09-30T19:24:07.977Z,95351.38
2022-09-30T19:26:36.669Z,95357.41
2022-09-30T19:29:07.845Z,95362.47
2022-09-30T19:31:36.653Z,95346.56
2022-09-30T19:34:04.410Z,95343.31
2022-09-30T19:36:41.367Z,95363.06
2022-09-30T19:39:12.471Z,95349.78
2022-09-30T19:41:39.954Z,95343.13
2022-09-30T19:44:06.924Z,95356.63
2022-09-30T19:46:33.817Z,95359.44
2022-09-30T19:49:00.718Z,95365.69
2022-09-30T19:51:31.008Z,95343.91
2022-09-30T19:54:06.019Z,95350.75
2022-09-30T19:56:34.549Z,95367.78
2022-09-30T19:59:01.447Z,95355.50
2022-09-30T20:01:29.299Z,95334.94
2022-09-30T20:03:57.938Z,95360.09
2022-09-30T20:06:25.077Z,95369.38
2022-09-30T20:08:54.680Z,95368.78
2022-09-30T20:11:22.304Z,95355.66
2022-09-30T20:13:51.164Z,95362.09
2022-09-30T20:16:18.029Z,95361.22
2022-09-30T20:18:44.828Z,95360.41
2022-09-30T20:21:16.763Z,95375.09
2022-09-30T20:23:45.865Z,95385.66
2022-09-30T20:26:13.624Z,95390.47
2022-09-30T20:28:42.135Z,95381.97
2022-09-30T20:31:13.887Z,95385.34
2022-09-30T20:33:42.190Z,95389.69
2022-09-30T20:36:11.114Z,95377.47
2022-09-30T20:38:39.749Z,95374.28
2022-09-30T20:41:06.971Z,95370.63
2022-09-30T20:43:34.044Z,95375.25
2022-09-30T20:46:05.421Z,95364.91
2022-09-30T20:48:35.068Z,95384.22
2022-09-30T20:51:10.212Z,95375.94
2022-09-30T20:53:39.787Z,95373.53
2022-09-30T20:56:08.787Z,95383.38
2022-09-30T20:58:37.393Z,95390.72
2022-09-30T21:01:18.622Z,95396.34
2022-09-30T21:03:50.617Z,95402.34
2022-09-30T21:06:35.523Z,95396.84
2022-09-30T21:09:03.429Z,95396.84
2022-09-30T21:11:30.439Z,95396.41
2022-09-30T21:13:58.188Z,95389.22
2022-09-30T21:16:25.916Z,95395.78
2022-09-30T21:18:53.906Z,95396.34
2022-09-30T21:21:23.000Z,95393.50
2022-09-30T21:23:53.861Z,95404.88
2022-09-30T21:26:21.058Z,95411.06
2022-09-30T21:28:49.676Z,95414.13
2022-09-30T21:31:27.612Z,95411.63
2022-09-30T21:33:59.023Z,95409.84
2022-09-30T21:36:27.842Z,95415.06
2022-09-30T21:38:55.086Z,95407.25
2022-09-30T21:41:23.022Z,95419.44
2022-09-30T21:43:49.829Z,95414.56
2022-09-30T21:46:18.571Z,95416.56
2022-09-30T21:48:46.295Z,95440.94
2022-09-30T21:51:13.803Z,95438.09
2022-09-30T21:53:41.535Z,95425.41
2022-09-30T21:56:11.721Z,95427.28
2022-09-30T21:58:39.326Z,95440.25
2022-09-30T22:01:06.940Z,95425.16
2022-09-30T22:03:39.666Z,95431.63
2022-09-30T22:06:08.800Z,95448.63
2022-09-30T22:08:42.156Z,95442.13
2022-09-30T22:11:25.236Z,95440.25
2022-09-30T22:13:55.743Z,95448.44
2022-09-30T22:16:28.004Z,95464.81
2022-09-30T22:18:57.513Z,95465.84
2022-09-30T22:21:24.889Z,95471.53
2022-09-30T22:23:53.031Z,95470.09
2022-09-30T22:26:22.947Z,95473.06
2022-09-30T22:28:58.503Z,95475.41
2022-09-30T22:31:27.409Z,95471.47
2022-09-30T22:34:15.772Z,95470.03
2022-09-30T22:37:01.967Z,95465.97
2022-09-30T22:39:29.785Z,95473.91
2022-09-30T22:41:58.450Z,95475.22
2022-09-30T22:44:39.295Z,95472.16
2022-09-30T22:47:10.603Z,95462.88
2022-09-30T22:49:37.520Z,95444.56
2022-09-30T22:52:04.403Z,95443.34
2022-09-30T22:54:31.336Z,95450.41
2022-09-30T22:56:59.519Z,95462.13
2022-09-30T22:59:27.439Z,95469.31
2022-09-30T23:01:55.582Z,95483.41
2022-09-30T23:04:22.887Z,95480.50
2022-09-30T23:06:55.530Z,95465.75
2022-09-30T23:09:22.811Z,95474.38
2022-09-30T23:11:53.723Z,95491.28
2022-09-30T23:14:23.560Z,95488.66
2022-09-30T23:16:51.322Z,95490.13
2022-09-30T23:19:18.803Z,95489.78
2022-09-30T23:21:45.619Z,95482.94
2022-09-30T23:24:12.456Z,95485.03
2022-09-30T23:26:39.798Z,95498.34
2022-09-30T23:29:10.544Z,95500.47
2022-09-30T23:31:38.026Z,95494.19
2022-09-30T23:34:05.902Z,95493.22
2022-09-30T23:36:36.437Z,95499.13
2022-09-30T23:39:04.902Z,95497.53
2022-09-30T23:41:34.514Z,95489.25
2022-09-30T23:44:01.758Z,95494.94
2022-09-30T23:46:28.591Z,95475.75
2022-09-30T23:48:55.403Z,95480.44
2022-09-30T23:51:22.583Z,95485.22
2022-09-30T23:53:49.828Z,95481.97
2022-09-30T23:56:18.818Z,95492.84
2022-09-30T23:58:46.937Z,95480.16
